createdAt,value
2022-08-31T00:00:13.078Z,0
2022-08-31T00:01:29.272Z,0
2022-08-31T00:02:45.451Z,0
2022-08-31T00:04:00.441Z,0
2022-08-31T00:05:16.625Z,0
2022-08-31T00:06:33.042Z,0
2022-08-31T00:07:49.220Z,0
2022-08-31T00:09:05.191Z,0
2022-08-31T00:10:21.605Z,0
2022-08-31T00:11:37.560Z,0
2022-08-31T00:12:53.986Z,0
2022-08-31T00:14:09.933Z,0
2022-08-31T00:15:26.347Z,0
2022-08-31T00:16:42.310Z,0
2022-08-31T00:17:58.493Z,0
2022-08-31T00:19:14.677Z,0
2022-08-31T00:20:30.119Z,0
2022-08-31T00:21:46.311Z,0
2022-08-31T00:23:02.497Z,0
2022-08-31T00:24:18.445Z,0
2022-08-31T00:25:34.863Z,0
2022-08-31T00:26:50.828Z,0
2022-08-31T00:28:07.021Z,0
2022-08-31T00:29:23.430Z,0
2022-08-31T00:30:39.624Z,0
2022-08-31T00:31:55.794Z,0
2022-08-31T00:33:11.999Z,0
2022-08-31T00:34:27.951Z,0
2022-08-31T00:35:44.359Z,0
2022-08-31T00:36:59.567Z,0
2022-08-31T00:38:15.521Z,0
2022-08-31T00:39:31.715Z,0
2022-08-31T00:40:48.121Z,0
2022-08-31T00:42:04.084Z,0
2022-08-31T00:43:20.507Z,0
2022-08-31T00:44:36.700Z,0
2022-08-31T00:45:52.875Z,0
2022-08-31T00:47:09.058Z,0
2022-08-31T00:48:25.261Z,0
2022-08-31T00:49:41.211Z,0
2022-08-31T00:50:57.624Z,0
2022-08-31T00:52:13.821Z,0
2022-08-31T00:53:28.789Z,0
2022-08-31T00:54:44.977Z,0
2022-08-31T00:56:01.158Z,0
2022-08-31T00:57:17.344Z,0
2022-08-31T00:58:33.779Z,0
2022-08-31T00:59:49.962Z,0
2022-08-31T01:01:06.137Z,0
2022-08-31T01:02:22.335Z,0
2022-08-31T01:03:38.522Z,0
2022-08-31T01:04:54.471Z,0
2022-08-31T01:06:10.889Z,0
2022-08-31T01:07:27.089Z,0
2022-08-31T01:08:43.027Z,0
2022-08-31T01:09:58.236Z,0
2022-08-31T01:11:14.664Z,0
2022-08-31T01:12:30.619Z,0
2022-08-31T01:13:47.027Z,0
2022-08-31T01:15:03.216Z,0
2022-08-31T01:16:19.404Z,0
2022-08-31T01:17:35.348Z,0
2022-08-31T01:18:51.785Z,0
2022-08-31T01:20:07.724Z,0
2022-08-31T01:21:23.915Z,0
2022-08-31T01:22:40.355Z,0
2022-08-31T01:23:56.303Z,0
2022-08-31T01:25:12.475Z,0
2022-08-31T01:26:27.694Z,0
2022-08-31T01:27:43.873Z,0
2022-08-31T01:29:00.292Z,0
2022-08-31T01:30:16.250Z,0
2022-08-31T01:31:32.674Z,0
2022-08-31T01:32:48.856Z,0
2022-08-31T01:34:05.046Z,0
2022-08-31T01:35:20.998Z,0
2022-08-31T01:36:37.414Z,0
2022-08-31T01:37:53.610Z,0
2022-08-31T01:39:09.807Z,0
2022-08-31T01:40:25.738Z,0
2022-08-31T01:41:41.923Z,0
2022-08-31T01:42:57.137Z,0
2022-08-31T01:44:13.559Z,0
2022-08-31T01:45:29.510Z,0
2022-08-31T01:46:45.931Z,0
2022-08-31T01:48:02.129Z,0
2022-08-31T01:49:18.316Z,0
2022-08-31T01:50:34.256Z,0
2022-08-31T01:51:50.443Z,0
2022-08-31T01:53:06.871Z,0
2022-08-31T01:54:23.072Z,0
2022-08-31T01:55:39.002Z,0
2022-08-31T01:56:55.446Z,0
2022-08-31T01:58:11.379Z,0
2022-08-31T01:59:26.845Z,0
2022-08-31T02:00:43.039Z,0
2022-08-31T02:01:59.222Z,0
2022-08-31T02:03:15.154Z,0
2022-08-31T02:04:31.601Z,0
2022-08-31T02:05:47.530Z,0
2022-08-31T02:07:03.724Z,0
2022-08-31T02:08:20.171Z,0
2022-08-31T02:09:36.341Z,0
2022-08-31T02:10:52.281Z,0
2022-08-31T02:12:08.724Z,0
2022-08-31T02:13:24.670Z,0
2022-08-31T02:14:41.116Z,0
2022-08-31T02:15:56.303Z,0
2022-08-31T02:17:12.504Z,0
2022-08-31T02:18:28.688Z,0
2022-08-31T02:19:44.886Z,0
2022-08-31T02:21:00.813Z,0
2022-08-31T02:22:17.267Z,0
2022-08-31T02:23:33.452Z,0
2022-08-31T02:24:49.387Z,0
2022-08-31T02:26:05.564Z,0
2022-08-31T02:27:22.005Z,0
2022-08-31T02:28:37.938Z,0
2022-08-31T02:29:54.396Z,0
2022-08-31T02:31:10.587Z,0
2022-08-31T02:32:25.784Z,0
2022-08-31T02:33:41.711Z,0
2022-08-31T02:34:57.903Z,0
2022-08-31T02:36:14.099Z,0
2022-08-31T02:37:30.541Z,0
2022-08-31T02:38:46.467Z,0
2022-08-31T02:40:02.911Z,0
2022-08-31T02:41:18.860Z,0
2022-08-31T02:42:35.028Z,0
2022-08-31T02:43:51.229Z,0
2022-08-31T02:45:07.687Z,0
2022-08-31T02:46:23.869Z,0
2022-08-31T02:47:40.042Z,0
2022-08-31T02:48:54.997Z,0
2022-08-31T02:50:11.178Z,0
2022-08-31T02:51:27.368Z,0
2022-08-31T02:52:43.556Z,0
2022-08-31T02:54:00.005Z,0
2022-08-31T02:55:16.200Z,0
2022-08-31T02:56:32.139Z,0
2022-08-31T02:57:48.578Z,0
2022-08-31T02:59:04.519Z,0
2022-08-31T03:00:20.968Z,0
2022-08-31T03:01:37.156Z,0
2022-08-31T03:02:53.068Z,0
2022-08-31T03:04:09.268Z,0
2022-08-31T03:05:24.730Z,0
2022-08-31T03:06:40.650Z,0
2022-08-31T03:07:57.110Z,0
2022-08-31T03:09:13.026Z,0
2022-08-31T03:10:29.482Z,0
2022-08-31T03:11:45.409Z,0
2022-08-31T03:13:01.863Z,0
2022-08-31T03:14:17.781Z,0
2022-08-31T03:15:34.249Z,0
2022-08-31T03:16:50.422Z,0
2022-08-31T03:18:06.615Z,0
2022-08-31T03:19:22.552Z,0
2022-08-31T03:20:38.991Z,0
2022-08-31T03:21:53.944Z,0
2022-08-31T03:23:10.386Z,0
2022-08-31T03:24:26.587Z,0
2022-08-31T03:25:42.764Z,0
2022-08-31T03:26:58.682Z,0
2022-08-31T03:28:14.881Z,0
2022-08-31T03:29:31.072Z,0
2022-08-31T03:30:47.529Z,0
2022-08-31T03:32:03.722Z,0
2022-08-31T03:33:19.902Z,0
2022-08-31T03:34:35.827Z,0
2022-08-31T03:35:52.286Z,0
2022-08-31T03:37:08.206Z,0
2022-08-31T03:38:23.681Z,0
2022-08-31T03:39:39.878Z,0
2022-08-31T03:40:55.783Z,0
2022-08-31T03:42:11.965Z,0
2022-08-31T03:43:28.159Z,0
2022-08-31T03:44:44.347Z,0
2022-08-31T03:46:00.804Z,0
2022-08-31T03:47:17.000Z,0
2022-08-31T03:48:33.194Z,0
2022-08-31T03:49:49.102Z,4
2022-08-31T03:51:05.556Z,4
2022-08-31T03:52:21.481Z,0
2022-08-31T03:53:37.680Z,4
2022-08-31T03:54:53.155Z,4
2022-08-31T03:56:09.331Z,4
2022-08-31T03:57:25.263Z,8
2022-08-31T03:58:41.712Z,8
2022-08-31T03:59:57.631Z,8
2022-08-31T04:01:13.818Z,8
2022-08-31T04:02:30.286Z,12
2022-08-31T04:03:46.204Z,16
2022-08-31T04:05:02.669Z,16
2022-08-31T04:06:18.575Z,20
2022-08-31T04:07:34.775Z,20
2022-08-31T04:08:51.226Z,24
2022-08-31T04:10:07.426Z,32
2022-08-31T04:11:22.633Z,32
2022-08-31T04:12:38.547Z,40
2022-08-31T04:13:55.007Z,44
2022-08-31T04:15:10.922Z,48
2022-08-31T04:16:27.371Z,52
2022-08-31T04:17:43.580Z,60
2022-08-31T04:18:58.779Z,68
2022-08-31T04:20:14.691Z,76
2022-08-31T04:21:31.163Z,80
2022-08-31T04:22:47.077Z,92
2022-08-31T04:24:03.544Z,100
2022-08-31T04:25:19.729Z,104
2022-08-31T04:26:35.911Z,112
2022-08-31T04:27:51.823Z,112
2022-08-31T04:29:08.294Z,124
2022-08-31T04:30:24.201Z,124
2022-08-31T04:31:40.392Z,140
2022-08-31T04:32:56.851Z,156
2022-08-31T04:34:13.047Z,168
2022-08-31T04:35:28.248Z,176
2022-08-31T04:36:44.448Z,188
2022-08-31T04:38:00.347Z,200
2022-08-31T04:39:16.821Z,220
2022-08-31T04:40:33.007Z,232
2022-08-31T04:41:49.198Z,244
2022-08-31T04:43:05.098Z,248
2022-08-31T04:44:21.289Z,248
2022-08-31T04:45:37.476Z,256
2022-08-31T04:46:53.947Z,264
2022-08-31T04:48:10.155Z,272
2022-08-31T04:49:26.342Z,280
2022-08-31T04:50:42.236Z,292
2022-08-31T04:51:57.728Z,304
2022-08-31T04:53:13.645Z,312
2022-08-31T04:54:30.098Z,328
2022-08-31T04:55:46.303Z,324
2022-08-31T04:57:02.211Z,328
2022-08-31T04:58:18.395Z,328
2022-08-31T04:59:34.869Z,340
2022-08-31T05:00:51.050Z,352
2022-08-31T05:02:07.252Z,372
2022-08-31T05:03:23.433Z,376
2022-08-31T05:04:39.632Z,388
2022-08-31T05:05:55.525Z,396
2022-08-31T05:07:11.992Z,412
2022-08-31T05:08:27.217Z,416
2022-08-31T05:09:43.119Z,464
2022-08-31T05:10:59.582Z,496
2022-08-31T05:12:15.774Z,512
2022-08-31T05:13:31.684Z,520
2022-08-31T05:14:48.158Z,540
2022-08-31T05:16:04.333Z,552
2022-08-31T05:17:20.238Z,568
2022-08-31T05:18:36.718Z,584
2022-08-31T05:19:52.912Z,600
2022-08-31T05:21:08.820Z,604
2022-08-31T05:22:24.996Z,620
2022-08-31T05:23:41.186Z,632
2022-08-31T05:24:56.388Z,592
2022-08-31T05:26:12.573Z,664
2022-08-31T05:27:29.066Z,684
2022-08-31T05:28:45.249Z,700
2022-08-31T05:30:01.150Z,716
2022-08-31T05:31:17.334Z,728
2022-08-31T05:32:33.824Z,736
2022-08-31T05:33:50.016Z,752
2022-08-31T05:35:06.190Z,764
2022-08-31T05:36:22.095Z,776
2022-08-31T05:37:38.273Z,780
2022-08-31T05:38:54.470Z,784
2022-08-31T05:40:10.960Z,796
2022-08-31T05:41:26.152Z,812
2022-08-31T05:42:42.341Z,824
2022-08-31T05:43:58.544Z,840
2022-08-31T05:45:14.732Z,844
2022-08-31T05:46:30.619Z,856
2022-08-31T05:47:47.105Z,872
2022-08-31T05:49:03.291Z,880
2022-08-31T05:50:19.190Z,888
2022-08-31T05:51:35.386Z,904
2022-08-31T05:52:51.871Z,916
2022-08-31T05:54:08.018Z,936
2022-08-31T05:55:24.246Z,952
2022-08-31T05:56:40.425Z,948
2022-08-31T05:57:55.635Z,1000
2022-08-31T05:59:11.795Z,1016
2022-08-31T06:00:28.002Z,1024
2022-08-31T06:01:44.164Z,1036
2022-08-31T06:03:00.386Z,1024
2022-08-31T06:04:16.571Z,1044
2022-08-31T06:05:32.762Z,1060
2022-08-31T06:06:48.931Z,1068
2022-08-31T06:08:05.144Z,1052
2022-08-31T06:09:21.304Z,1028
2022-08-31T06:10:37.521Z,1052
2022-08-31T06:11:53.686Z,1020
2022-08-31T06:13:09.873Z,1068
2022-08-31T06:14:25.075Z,1088
2022-08-31T06:15:41.276Z,1052
2022-08-31T06:16:57.447Z,1100
2022-08-31T06:18:13.684Z,1116
2022-08-31T06:19:29.869Z,1124
2022-08-31T06:20:46.043Z,1140
2022-08-31T06:22:02.209Z,1116
2022-08-31T06:23:18.433Z,1156
2022-08-31T06:24:34.599Z,1148
2022-08-31T06:25:50.788Z,1144
2022-08-31T06:27:06.975Z,1144
2022-08-31T06:28:23.184Z,1132
2022-08-31T06:29:39.338Z,1112
2022-08-31T06:30:54.573Z,1116
2022-08-31T06:32:10.776Z,1100
2022-08-31T06:33:26.924Z,1084
2022-08-31T06:34:43.157Z,1068
2022-08-31T06:35:59.332Z,1084
2022-08-31T06:37:15.486Z,1084
2022-08-31T06:38:31.677Z,1044
2022-08-31T06:39:47.909Z,1068
2022-08-31T06:41:04.050Z,1064
2022-08-31T06:42:20.279Z,1008
2022-08-31T06:43:36.465Z,1016
2022-08-31T06:44:52.616Z,1120
2022-08-31T06:46:08.848Z,1136
2022-08-31T06:47:24.011Z,1144
2022-08-31T06:48:40.236Z,1104
2022-08-31T06:49:56.443Z,1096
2022-08-31T06:51:12.616Z,1100
2022-08-31T06:52:28.781Z,1140
2022-08-31T06:53:44.993Z,1168
2022-08-31T06:55:01.154Z,1176
2022-08-31T06:56:17.378Z,1180
2022-08-31T06:57:33.559Z,1184
2022-08-31T06:58:49.749Z,1184
2022-08-31T07:00:05.900Z,1176
2022-08-31T07:01:22.099Z,1168
2022-08-31T07:02:38.278Z,1160
2022-08-31T07:03:53.492Z,1156
2022-08-31T07:05:09.690Z,1156
2022-08-31T07:06:25.917Z,1140
2022-08-31T07:07:42.105Z,1140
2022-08-31T07:08:58.277Z,1144
2022-08-31T07:10:14.429Z,1156
2022-08-31T07:11:30.670Z,1152
2022-08-31T07:12:46.844Z,1184
2022-08-31T07:14:03.033Z,1192
2022-08-31T07:15:19.191Z,1200
2022-08-31T07:16:35.412Z,1200
2022-08-31T07:17:51.571Z,1196
2022-08-31T07:19:07.766Z,1204
2022-08-31T07:20:22.969Z,1216
2022-08-31T07:21:39.193Z,1220
2022-08-31T07:22:55.337Z,1220
2022-08-31T07:24:11.565Z,1224
2022-08-31T07:25:27.716Z,1228
2022-08-31T07:26:43.938Z,1224
2022-08-31T07:28:00.130Z,1228
2022-08-31T07:29:16.288Z,1232
2022-08-31T07:30:32.466Z,1248
2022-08-31T07:31:48.712Z,1244
2022-08-31T07:33:04.887Z,1232
2022-08-31T07:34:21.089Z,1216
2022-08-31T07:35:37.278Z,1216
2022-08-31T07:36:52.427Z,1224
2022-08-31T07:38:08.657Z,1220
2022-08-31T07:39:24.849Z,1204
2022-08-31T07:40:40.996Z,1204
2022-08-31T07:41:57.197Z,1196
2022-08-31T07:43:13.386Z,1192
2022-08-31T07:44:29.556Z,1188
2022-08-31T07:45:45.798Z,1160
2022-08-31T07:47:01.999Z,1156
2022-08-31T07:48:18.122Z,1164
2022-08-31T07:49:34.312Z,1168
2022-08-31T07:50:50.518Z,1148
2022-08-31T07:52:06.751Z,1164
2022-08-31T07:53:21.912Z,1176
2022-08-31T07:54:38.098Z,1188
2022-08-31T07:55:54.278Z,1192
2022-08-31T07:57:10.512Z,1200
2022-08-31T07:58:26.712Z,1200
2022-08-31T07:59:42.901Z,1212
2022-08-31T08:00:59.081Z,1220
2022-08-31T08:02:15.227Z,1216
2022-08-31T08:03:31.405Z,1236
2022-08-31T08:04:47.648Z,1248
2022-08-31T08:06:03.839Z,1256
2022-08-31T08:07:20.024Z,1252
2022-08-31T08:08:36.164Z,1272
2022-08-31T08:09:51.365Z,1264
2022-08-31T08:11:07.564Z,1256
2022-08-31T08:12:23.748Z,1244
2022-08-31T08:13:39.935Z,1244
2022-08-31T08:14:56.132Z,1240
2022-08-31T08:16:12.311Z,1244
2022-08-31T08:17:28.553Z,984
2022-08-31T08:18:44.743Z,1008
2022-08-31T08:20:00.883Z,1164
2022-08-31T08:21:17.063Z,1268
2022-08-31T08:22:33.312Z,1284
2022-08-31T08:23:49.447Z,1356
2022-08-31T08:25:05.696Z,1400
2022-08-31T08:26:20.898Z,1456
2022-08-31T08:27:37.078Z,1540
2022-08-31T08:28:53.214Z,1556
2022-08-31T08:30:09.466Z,1344
2022-08-31T08:31:25.590Z,1428
2022-08-31T08:32:41.798Z,1428
2022-08-31T08:33:57.012Z,1700
2022-08-31T08:35:13.242Z,1736
2022-08-31T08:36:29.439Z,1564
2022-08-31T08:37:45.619Z,1460
2022-08-31T08:39:01.747Z,1420
2022-08-31T08:40:17.938Z,1444
2022-08-31T08:41:34.124Z,1444
2022-08-31T08:42:50.378Z,1460
2022-08-31T08:44:06.561Z,1468
2022-08-31T08:45:22.706Z,1476
2022-08-31T08:46:38.892Z,1476
2022-08-31T08:47:55.132Z,1544
2022-08-31T08:49:11.266Z,1544
2022-08-31T08:50:26.530Z,1572
2022-08-31T08:51:42.662Z,1552
2022-08-31T08:52:58.856Z,1604
2022-08-31T08:54:15.037Z,1552
2022-08-31T08:55:31.278Z,1548
2022-08-31T08:56:47.403Z,1548
2022-08-31T08:58:03.606Z,1736
2022-08-31T08:59:19.791Z,2120
2022-08-31T09:00:36.037Z,2024
2022-08-31T09:01:52.170Z,1880
2022-08-31T09:03:08.352Z,1820
2022-08-31T09:04:24.535Z,1660
2022-08-31T09:05:40.798Z,1556
2022-08-31T09:06:55.936Z,1552
2022-08-31T09:08:12.181Z,1980
2022-08-31T09:09:28.324Z,2072
2022-08-31T09:10:44.568Z,2108
2022-08-31T09:12:00.695Z,1944
2022-08-31T09:13:16.941Z,2032
2022-08-31T09:14:33.133Z,2268
2022-08-31T09:15:49.314Z,2540
2022-08-31T09:17:05.459Z,2252
2022-08-31T09:18:21.707Z,1956
2022-08-31T09:19:37.896Z,1872
2022-08-31T09:20:54.079Z,1840
2022-08-31T09:22:10.267Z,1808
2022-08-31T09:23:25.466Z,1884
2022-08-31T09:24:41.608Z,1968
2022-08-31T09:25:57.850Z,1948
2022-08-31T09:27:13.986Z,2036
2022-08-31T09:28:30.170Z,2028
2022-08-31T09:29:46.361Z,2176
2022-08-31T09:31:02.614Z,2808
2022-08-31T09:32:18.734Z,2760
2022-08-31T09:33:34.926Z,2328
2022-08-31T09:34:51.111Z,2456
2022-08-31T09:36:07.293Z,2144
2022-08-31T09:37:23.560Z,2084
2022-08-31T09:38:39.746Z,2380
2022-08-31T09:39:54.878Z,2640
2022-08-31T09:41:11.127Z,3144
2022-08-31T09:42:27.252Z,3880
2022-08-31T09:43:43.518Z,3744
2022-08-31T09:44:59.706Z,3784
2022-08-31T09:46:15.895Z,3924
2022-08-31T09:47:32.022Z,3344
2022-08-31T09:48:48.280Z,2968
2022-08-31T09:50:04.380Z,3320
2022-08-31T09:51:20.648Z,3872
2022-08-31T09:52:36.836Z,3756
2022-08-31T09:53:53.032Z,3404
2022-08-31T09:55:09.155Z,3644
2022-08-31T09:56:24.430Z,3372
2022-08-31T09:57:40.620Z,3516
2022-08-31T09:58:56.806Z,3808
2022-08-31T10:00:12.908Z,4212
2022-08-31T10:01:29.168Z,4072
2022-08-31T10:02:45.366Z,3840
2022-08-31T10:04:01.555Z,3764
2022-08-31T10:05:17.740Z,4444
2022-08-31T10:06:33.940Z,4508
2022-08-31T10:07:50.129Z,3996
2022-08-31T10:09:06.305Z,4016
2022-08-31T10:10:22.418Z,3644
2022-08-31T10:11:38.687Z,3392
2022-08-31T10:12:53.814Z,3332
2022-08-31T10:14:10.077Z,3580
2022-08-31T10:15:26.195Z,3848
2022-08-31T10:16:42.463Z,4072
2022-08-31T10:17:58.648Z,4612
2022-08-31T10:19:14.836Z,4640
2022-08-31T10:20:30.949Z,5116
2022-08-31T10:21:47.212Z,3924
2022-08-31T10:23:03.321Z,4380
2022-08-31T10:24:19.598Z,4228
2022-08-31T10:25:35.717Z,3980
2022-08-31T10:26:51.887Z,3864
2022-08-31T10:28:08.095Z,3824
2022-08-31T10:29:23.374Z,3800
2022-08-31T10:30:39.486Z,3856
2022-08-31T10:31:55.757Z,3996
2022-08-31T10:33:11.866Z,4176
2022-08-31T10:34:28.129Z,3800
2022-08-31T10:35:44.230Z,4052
2022-08-31T10:37:00.428Z,3792
2022-08-31T10:38:16.609Z,4452
2022-08-31T10:39:32.805Z,4564
2022-08-31T10:40:48.982Z,4836
2022-08-31T10:42:05.260Z,5524
2022-08-31T10:43:21.376Z,4564
2022-08-31T10:44:37.627Z,5740
2022-08-31T10:45:52.847Z,4884
2022-08-31T10:47:09.035Z,5192
2022-08-31T10:48:25.137Z,5060
2022-08-31T10:49:41.409Z,5952
2022-08-31T10:50:57.524Z,7588
2022-08-31T10:52:13.697Z,7692
2022-08-31T10:53:29.887Z,6080
2022-08-31T10:54:46.158Z,5828
2022-08-31T10:56:02.266Z,6960
2022-08-31T10:57:18.539Z,6700
2022-08-31T10:58:34.647Z,6204
2022-08-31T10:59:50.919Z,5976
2022-08-31T11:01:07.111Z,6024
2022-08-31T11:02:22.317Z,6948
2022-08-31T11:03:38.426Z,6304
2022-08-31T11:04:54.698Z,6760
2022-08-31T11:06:10.799Z,7328
2022-08-31T11:07:27.081Z,7148
2022-08-31T11:08:43.260Z,6852
2022-08-31T11:09:59.448Z,6916
2022-08-31T11:11:15.545Z,9064
2022-08-31T11:12:31.743Z,9652
2022-08-31T11:13:47.935Z,10416
2022-08-31T11:15:04.205Z,9888
2022-08-31T11:16:20.392Z,9004
2022-08-31T11:17:36.493Z,7896
2022-08-31T11:18:51.714Z,7140
2022-08-31T11:20:07.970Z,6868
2022-08-31T11:21:24.171Z,7056
2022-08-31T11:22:40.344Z,8024
2022-08-31T11:23:56.540Z,8872
2022-08-31T11:25:12.647Z,9716
2022-08-31T11:26:28.832Z,9660
2022-08-31T11:27:45.005Z,9724
2022-08-31T11:29:01.197Z,7892
2022-08-31T11:30:17.470Z,7840
2022-08-31T11:31:33.571Z,11376
2022-08-31T11:32:49.858Z,8784
2022-08-31T11:34:05.949Z,9400
2022-08-31T11:35:21.245Z,8488
2022-08-31T11:36:37.330Z,9652
2022-08-31T11:37:53.613Z,9908
2022-08-31T11:39:09.802Z,7824
2022-08-31T11:40:25.984Z,13624
2022-08-31T11:41:42.094Z,15904
2022-08-31T11:42:58.283Z,46208
2022-08-31T11:44:14.457Z,40864
2022-08-31T11:45:30.749Z,9188
2022-08-31T11:46:46.827Z,9924
2022-08-31T11:48:03.118Z,8836
2022-08-31T11:49:19.216Z,10532
2022-08-31T11:50:35.498Z,30144
2022-08-31T11:51:50.609Z,18824
2022-08-31T11:53:06.798Z,38688
2022-08-31T11:54:23.076Z,52384
2022-08-31T11:55:39.251Z,53696
2022-08-31T11:56:55.354Z,35584
2022-08-31T11:58:11.625Z,15484
2022-08-31T11:59:27.717Z,10728
2022-08-31T12:00:43.910Z,41760
2022-08-31T12:02:00.188Z,25664
2022-08-31T12:03:16.280Z,55520
2022-08-31T12:04:32.478Z,9284
2022-08-31T12:05:48.747Z,6176
2022-08-31T12:07:04.857Z,4784
2022-08-31T12:08:20.050Z,4296
2022-08-31T12:09:36.328Z,4876
2022-08-31T12:10:52.527Z,7224
2022-08-31T12:12:08.603Z,8452
2022-08-31T12:13:24.902Z,8720
2022-08-31T12:14:40.983Z,14440
2022-08-31T12:15:57.272Z,9152
2022-08-31T12:17:13.464Z,9704
2022-08-31T12:18:29.653Z,10844
2022-08-31T12:19:45.825Z,10548
2022-08-31T12:21:01.920Z,15700
2022-08-31T12:22:18.214Z,17020
2022-08-31T12:23:34.405Z,49248
2022-08-31T12:24:49.610Z,50144
2022-08-31T12:26:05.794Z,43200
2022-08-31T12:27:21.885Z,11744
2022-08-31T12:28:38.168Z,11272
2022-08-31T12:29:54.244Z,5720
2022-08-31T12:31:10.542Z,4924
2022-08-31T12:32:26.720Z,4516
2022-08-31T12:33:42.808Z,4376
2022-08-31T12:34:58.993Z,4708
2022-08-31T12:36:15.278Z,5616
2022-08-31T12:37:31.378Z,6804
2022-08-31T12:38:47.658Z,9924
2022-08-31T12:40:03.845Z,27712
2022-08-31T12:41:19.051Z,10496
2022-08-31T12:42:35.146Z,30880
2022-08-31T12:43:51.419Z,57280
2022-08-31T12:45:07.620Z,56256
2022-08-31T12:46:23.796Z,55520
2022-08-31T12:47:39.992Z,56512
2022-08-31T12:48:55.209Z,60288
2022-08-31T12:50:11.292Z,48928
2022-08-31T12:51:27.569Z,16560
2022-08-31T12:52:43.653Z,16672
2022-08-31T12:53:59.950Z,28352
2022-08-31T12:55:16.039Z,9416
2022-08-31T12:56:32.220Z,9152
2022-08-31T12:57:48.398Z,9456
2022-08-31T12:59:04.710Z,12416
2022-08-31T13:00:20.789Z,12240
2022-08-31T13:01:36.971Z,12868
2022-08-31T13:02:53.265Z,24960
2022-08-31T13:04:09.445Z,13676
2022-08-31T13:05:24.656Z,13564
2022-08-31T13:06:40.841Z,14384
2022-08-31T13:07:57.021Z,10552
2022-08-31T13:09:13.224Z,10480
2022-08-31T13:10:29.287Z,17228
2022-08-31T13:11:45.487Z,29568
2022-08-31T13:13:01.677Z,49920
2022-08-31T13:14:17.975Z,54816
2022-08-31T13:15:34.053Z,49632
2022-08-31T13:16:50.334Z,56384
2022-08-31T13:18:06.529Z,56256
2022-08-31T13:19:22.722Z,21856
2022-08-31T13:20:38.792Z,12196
2022-08-31T13:21:54.097Z,36416
2022-08-31T13:23:10.287Z,48160
2022-08-31T13:24:26.362Z,7148
2022-08-31T13:25:42.670Z,5564
2022-08-31T13:26:58.735Z,5312
2022-08-31T13:28:15.043Z,5700
2022-08-31T13:29:31.232Z,6060
2022-08-31T13:30:47.300Z,6508
2022-08-31T13:32:03.597Z,7424
2022-08-31T13:33:19.798Z,8376
2022-08-31T13:34:35.973Z,10580
2022-08-31T13:35:52.049Z,54464
2022-08-31T13:37:08.235Z,56512
2022-08-31T13:38:23.552Z,56832
2022-08-31T13:39:39.741Z,54272
2022-08-31T13:40:55.936Z,47424
2022-08-31T13:42:12.128Z,45536
2022-08-31T13:43:28.197Z,43808
2022-08-31T13:44:44.492Z,42816
2022-08-31T13:46:00.577Z,42304
2022-08-31T13:47:16.868Z,41440
2022-08-31T13:48:33.060Z,39584
2022-08-31T13:49:49.137Z,42464
2022-08-31T13:51:05.434Z,40736
2022-08-31T13:52:21.615Z,40032
2022-08-31T13:53:37.804Z,41664
2022-08-31T13:54:53.018Z,38720
2022-08-31T13:56:09.210Z,39424
2022-08-31T13:57:25.381Z,37088
2022-08-31T13:58:41.466Z,39520
2022-08-31T13:59:57.759Z,41472
2022-08-31T14:01:13.842Z,43264
2022-08-31T14:02:30.145Z,45632
2022-08-31T14:03:46.336Z,39904
2022-08-31T14:05:02.508Z,33600
2022-08-31T14:06:18.708Z,28544
2022-08-31T14:07:34.762Z,39616
2022-08-31T14:08:50.950Z,8156
2022-08-31T14:10:07.270Z,5796
2022-08-31T14:11:22.468Z,5844
2022-08-31T14:12:38.654Z,5208
2022-08-31T14:13:54.717Z,5208
2022-08-31T14:15:11.037Z,5668
2022-08-31T14:16:27.226Z,6312
2022-08-31T14:17:43.397Z,7172
2022-08-31T14:18:59.599Z,8092
2022-08-31T14:20:15.784Z,16324
2022-08-31T14:21:31.849Z,32192
2022-08-31T14:22:48.146Z,34688
2022-08-31T14:24:04.339Z,39136
2022-08-31T14:25:20.541Z,38304
2022-08-31T14:26:36.601Z,37216
2022-08-31T14:27:51.917Z,23328
2022-08-31T14:29:07.994Z,23616
2022-08-31T14:30:24.288Z,6896
2022-08-31T14:31:40.493Z,7320
2022-08-31T14:32:56.678Z,7544
2022-08-31T14:34:12.863Z,7120
2022-08-31T14:35:29.051Z,5896
2022-08-31T14:36:45.102Z,6080
2022-08-31T14:38:01.424Z,5516
2022-08-31T14:39:17.604Z,5404
2022-08-31T14:40:33.671Z,5164
2022-08-31T14:41:49.993Z,5100
2022-08-31T14:43:06.164Z,4916
2022-08-31T14:44:21.239Z,4840
2022-08-31T14:45:37.428Z,4808
2022-08-31T14:46:53.616Z,4860
2022-08-31T14:48:09.805Z,4868
2022-08-31T14:49:26.132Z,4944
2022-08-31T14:50:42.304Z,4856
2022-08-31T14:51:58.377Z,4712
2022-08-31T14:53:14.557Z,4704
2022-08-31T14:54:30.874Z,4888
2022-08-31T14:55:47.073Z,5372
2022-08-31T14:57:03.246Z,5660
2022-08-31T14:58:19.439Z,5408
2022-08-31T14:59:35.635Z,5012
2022-08-31T15:00:50.692Z,4572
2022-08-31T15:02:06.883Z,4732
2022-08-31T15:03:23.204Z,5012
2022-08-31T15:04:39.381Z,4924
2022-08-31T15:05:55.449Z,4156
2022-08-31T15:07:11.631Z,3392
2022-08-31T15:08:27.817Z,2984
2022-08-31T15:09:44.018Z,2692
2022-08-31T15:11:00.322Z,2428
2022-08-31T15:12:16.518Z,2340
2022-08-31T15:13:32.699Z,2280
2022-08-31T15:14:48.762Z,2260
2022-08-31T15:16:05.075Z,2352
2022-08-31T15:17:20.281Z,2544
2022-08-31T15:18:36.341Z,2736
2022-08-31T15:19:52.662Z,2864
2022-08-31T15:21:08.845Z,2908
2022-08-31T15:22:25.040Z,2848
2022-08-31T15:23:41.217Z,2876
2022-08-31T15:24:57.275Z,2692
2022-08-31T15:26:13.594Z,2668
2022-08-31T15:27:29.784Z,2764
2022-08-31T15:28:45.976Z,2692
2022-08-31T15:30:02.011Z,2688
2022-08-31T15:31:18.208Z,2720
2022-08-31T15:32:34.391Z,2412
2022-08-31T15:33:49.725Z,2144
2022-08-31T15:35:05.923Z,2104
2022-08-31T15:36:22.109Z,2100
2022-08-31T15:37:38.156Z,2096
2022-08-31T15:38:54.484Z,2180
2022-08-31T15:40:10.670Z,2256
2022-08-31T15:41:26.860Z,2276
2022-08-31T15:42:43.044Z,2284
2022-08-31T15:43:59.231Z,2260
2022-08-31T15:45:15.279Z,2260
2022-08-31T15:46:31.609Z,2208
2022-08-31T15:47:47.661Z,2132
2022-08-31T15:49:03.979Z,2068
2022-08-31T15:50:19.177Z,2020
2022-08-31T15:51:35.230Z,1976
2022-08-31T15:52:51.411Z,1944
2022-08-31T15:54:07.749Z,1916
2022-08-31T15:55:23.803Z,1892
2022-08-31T15:56:40.119Z,1848
2022-08-31T15:57:56.310Z,1800
2022-08-31T15:59:12.503Z,1764
2022-08-31T16:00:28.539Z,1736
2022-08-31T16:01:44.874Z,1708
2022-08-31T16:03:01.058Z,1672
2022-08-31T16:04:17.247Z,1632
2022-08-31T16:05:33.425Z,1564
2022-08-31T16:06:48.634Z,1484
2022-08-31T16:08:04.687Z,1392
2022-08-31T16:09:20.863Z,1288
2022-08-31T16:10:37.206Z,1196
2022-08-31T16:11:53.376Z,1104
2022-08-31T16:13:09.580Z,1012
2022-08-31T16:14:25.769Z,944
2022-08-31T16:15:41.957Z,908
2022-08-31T16:16:58.138Z,884
2022-08-31T16:18:14.330Z,860
2022-08-31T16:19:30.355Z,840
2022-08-31T16:20:46.695Z,828
2022-08-31T16:22:02.746Z,828
2022-08-31T16:23:17.935Z,832
2022-08-31T16:24:34.126Z,836
2022-08-31T16:25:50.314Z,844
2022-08-31T16:27:06.648Z,856
2022-08-31T16:28:22.834Z,860
2022-08-31T16:29:39.035Z,872
2022-08-31T16:30:55.220Z,872
2022-08-31T16:32:11.405Z,872
2022-08-31T16:33:27.438Z,876
2022-08-31T16:34:43.633Z,884
2022-08-31T16:35:59.956Z,896
2022-08-31T16:37:16.146Z,912
2022-08-31T16:38:32.191Z,916
2022-08-31T16:39:47.387Z,920
2022-08-31T16:42:19.919Z,896
2022-08-31T16:43:36.104Z,876
2022-08-31T16:44:52.279Z,844
2022-08-31T16:46:08.331Z,820
2022-08-31T16:47:24.516Z,796
2022-08-31T16:48:40.846Z,768
2022-08-31T16:49:57.034Z,748
2022-08-31T16:51:13.222Z,728
2022-08-31T16:52:29.409Z,708
2022-08-31T16:53:45.444Z,688
2022-08-31T16:55:01.796Z,672
2022-08-31T16:56:16.849Z,652
2022-08-31T16:57:33.174Z,632
2022-08-31T16:58:49.358Z,612
2022-08-31T17:00:05.411Z,592
2022-08-31T17:01:21.741Z,576
2022-08-31T17:02:37.764Z,560
2022-08-31T17:03:52.979Z,540
2022-08-31T17:05:09.320Z,528
2022-08-31T17:06:25.362Z,516
2022-08-31T17:07:41.704Z,512
2022-08-31T17:08:57.722Z,512
2022-08-31T17:10:14.080Z,508
2022-08-31T17:11:30.264Z,504
2022-08-31T17:12:46.297Z,500
2022-08-31T17:14:02.629Z,492
2022-08-31T17:15:18.821Z,480
2022-08-31T17:16:34.865Z,468
2022-08-31T17:17:51.192Z,456
2022-08-31T17:19:07.395Z,444
2022-08-31T17:20:22.580Z,428